Rodeo, Argentina
Current Conditions -  °F | °C
As of 11:00 PM on Saturday 25 Oct 2014 (Local Time) from SCSE Reporting Station
NA  
Wind Chill: 57°   Ceiling: NA
Heat Index: 57°   Visibility: NA
Dew Point: 54°   Wind: 2mph
Humidity: 88%   Direction: NA
Pressure: 30"   Gusts: NA
Location:  30.2°S, 69.1°W
Report Text: SCSE 260200Z AUTO VRB02KT //// // ////// 14/12 Q1016
Loading
Personal Weather Stations






























Interactive Weather Map
Tropical Storm Tracking
New forecast layout! Learn more

10-Day Weather Forecast

Advertisements
Track Severe Weather on mobile